Time;durP1;ratioP1;P1;durP2;ratioP2;P2;SDS_P1;SDS_P2;PMS_P1;PMS_P2;Temp;Humidity;BMP_temperature;BMP_pressure;BME280_temperature;BME280_humidity;BME280_pressure;Samples;Min_cycle;Max_cycle;Signal;HPM_P1;HPM_P2
2022/11/18 00:01:11;;;;;;;8.33;5.70;;;4.40;99.90;;;;;;4993891;28;20176;-90
2022/11/18 00:03:38;;;;;;;12.03;6.10;;;4.40;99.90;;;;;;5008972;28;20194;-89
2022/11/18 00:06:06;;;;;;;8.10;5.80;;;4.40;99.90;;;;;;5013357;28;20182;-88
2022/11/18 00:08:33;;;;;;;7.57;5.80;;;4.40;99.90;;;;;;5013493;28;20213;-88
2022/11/18 00:11:07;;;;;;;8.27;5.70;;;4.40;99.90;;;;;;5013390;28;20190;-88
2022/11/18 00:16:18;;;;;;;8.13;5.50;;;4.30;99.90;;;;;;4995078;28;20195;-87
2022/11/18 00:18:44;;;;;;;8.03;6.07;;;4.30;99.90;;;;;;4993170;28;20203;-88
2022/11/18 00:21:11;;;;;;;9.97;6.07;;;4.30;99.90;;;;;;4993568;28;20694;-88
2022/11/18 00:23:38;;;;;;;7.87;5.77;;;4.30;99.90;;;;;;4993717;28;20168;-88
2022/11/18 00:26:07;;;;;;;10.00;5.90;;;4.30;99.90;;;;;;4993878;28;20196;-88
2022/11/18 00:28:33;;;;;;;8.17;5.50;;;4.30;99.90;;;;;;4992935;28;20675;-88
2022/11/18 00:31:05;;;;;;;6.77;5.30;;;4.30;99.90;;;;;;4992960;28;20258;-87
2022/11/18 00:33:33;;;;;;;9.07;6.17;;;4.30;99.90;;;;;;4978992;28;20204;-88
2022/11/18 00:35:59;;;;;;;7.73;6.03;;;4.30;99.90;;;;;;4988066;28;20194;-87
2022/11/18 00:38:25;;;;;;;11.00;6.57;;;4.30;99.90;;;;;;5012835;28;20202;-89
2022/11/18 00:41:06;;;;;;;10.90;6.93;;;4.30;99.90;;;;;;5012699;28;20170;-88
2022/11/18 00:43:33;;;;;;;9.70;6.60;;;4.30;99.90;;;;;;5012471;28;20261;-88
2022/11/18 00:45:59;;;;;;;9.23;6.90;;;4.30;99.90;;;;;;5012663;28;20186;-88
2022/11/18 00:48:25;;;;;;;10.57;7.37;;;4.30;99.90;;;;;;5012669;28;20199;-88
2022/11/18 00:50:52;;;;;;;10.47;7.43;;;4.30;99.90;;;;;;5012345;28;20171;-88
2022/11/18 00:53:27;;;;;;;9.43;7.10;;;4.30;99.90;;;;;;5012518;28;20199;-88
2022/11/18 00:55:53;;;;;;;12.57;7.67;;;4.30;99.90;;;;;;5011786;28;20186;-88
2022/11/18 00:58:20;;;;;;;11.07;7.07;;;4.30;99.90;;;;;;5012509;28;20253;-88
2022/11/18 01:00:51;;;;;;;12.20;7.73;;;4.30;99.90;;;;;;5012662;28;20685;-88
2022/11/18 01:03:19;;;;;;;12.83;7.57;;;4.30;99.90;;;;;;4999989;28;20192;-88
2022/11/18 01:05:44;;;;;;;10.20;6.83;;;4.30;99.90;;;;;;4993360;28;20263;-88
2022/11/18 01:08:12;;;;;;;12.80;7.80;;;4.20;99.90;;;;;;4992822;28;20349;-88
2022/11/18 01:10:39;;;;;;;11.47;8.00;;;4.20;99.90;;;;;;4992418;28;20256;-88
2022/11/18 01:13:18;;;;;;;12.60;8.67;;;4.10;99.90;;;;;;4992364;28;20203;-89
2022/11/18 01:15:47;;;;;;;10.90;7.70;;;4.20;99.90;;;;;;4992731;28;20187;-88
2022/11/18 01:18:14;;;;;;;11.20;8.07;;;4.20;99.90;;;;;;4992397;28;20195;-88
2022/11/18 01:20:40;;;;;;;11.47;8.40;;;4.20;99.90;;;;;;4992796;28;20168;-87
2022/11/18 01:23:06;;;;;;;12.57;8.97;;;4.20;99.90;;;;;;4992475;28;20180;-89
2022/11/18 01:25:34;;;;;;;11.07;8.00;;;4.10;99.90;;;;;;5373157;23;20765;-87
2022/11/18 01:27:59;;;;;;;12.10;8.80;;;4.10;99.90;;;;;;4992545;28;20709;-88
2022/11/18 01:30:25;;;;;;;12.77;8.27;;;4.10;99.90;;;;;;4992929;28;20597;-88
2022/11/18 01:32:51;;;;;;;11.77;7.90;;;4.10;99.90;;;;;;5000895;28;20206;-88
2022/11/18 01:35:17;;;;;;;12.30;8.63;;;4.10;99.90;;;;;;5012341;28;20172;-88
2022/11/18 01:37:43;;;;;;;15.07;9.90;;;4.00;99.90;;;;;;5012042;28;20199;-86
2022/11/18 01:40:10;;;;;;;16.13;8.60;;;4.10;99.90;;;;;;5013323;28;20179;-89
2022/11/18 01:42:36;;;;;;;17.77;9.73;;;4.10;99.90;;;;;;5012030;28;20191;-87
2022/11/18 01:45:13;;;;;;;13.40;8.80;;;4.00;99.90;;;;;;5012212;28;20181;-87
2022/11/18 01:47:47;;;;;;;12.87;8.63;;;4.00;99.90;;;;;;5012674;28;20199;-88
2022/11/18 01:50:17;;;;;;;16.13;8.90;;;4.00;99.90;;;;;;5014021;28;20269;-88
2022/11/18 01:52:44;;;;;;;14.23;8.77;;;4.00;99.90;;;;;;4997264;28;20199;-89
2022/11/18 01:55:14;;;;;;;13.23;8.50;;;3.90;99.90;;;;;;4992902;28;20311;-87
2022/11/18 01:57:43;;;;;;;18.30;9.70;;;4.00;99.90;;;;;;4992845;28;20196;-87
2022/11/18 02:00:11;;;;;;;15.33;9.63;;;4.00;99.90;;;;;;4992595;28;20207;-87
2022/11/18 02:02:37;;;;;;;17.57;9.97;;;3.90;99.90;;;;;;4992293;28;20183;-87
2022/11/18 02:05:10;;;;;;;15.83;9.30;;;3.90;99.90;;;;;;4992678;28;20206;-88
2022/11/18 02:07:39;;;;;;;16.33;10.93;;;3.90;99.90;;;;;;5011648;28;20234;-87
2022/11/18 02:10:23;;;;;;;16.30;9.43;;;3.90;99.90;;;;;;5011444;28;20175;-88
2022/11/18 02:12:51;;;;;;;16.30;10.00;;;3.90;99.90;;;;;;5014687;28;20235;-88
2022/11/18 02:15:36;;;;;;;17.37;10.20;;;3.90;99.90;;;;;;5015567;28;20258;-89
2022/11/18 02:18:17;;;;;;;16.57;9.77;;;3.90;99.90;;;;;;5015792;28;20199;-88
2022/11/18 02:20:50;;;;;;;16.57;10.77;;;3.80;99.90;;;;;;5015887;28;20632;-88
2022/11/18 02:23:33;;;;;;;19.83;10.20;;;3.80;99.90;;;;;;5001128;28;20187;-88
2022/11/18 02:26:23;;;;;;;14.93;9.10;;;3.80;99.90;;;;;;5014285;28;20230;-88
2022/11/18 02:29:02;;;;;;;18.17;9.77;;;3.80;99.90;;;;;;5016042;28;20211;-88
2022/11/18 02:31:53;;;;;;;16.93;10.07;;;3.70;99.90;;;;;;5001098;28;20194;-88
2022/11/18 02:34:40;;;;;;;16.40;10.30;;;3.70;99.90;;;;;;5008561;28;20215;-89
2022/11/18 02:37:28;;;;;;;14.43;8.93;;;3.70;99.90;;;;;;5015304;28;20203;-88
2022/11/18 02:40:06;;;;;;;17.97;9.77;;;3.70;99.90;;;;;;5000980;28;20206;-88
2022/11/18 02:42:35;;;;;;;18.10;10.43;;;3.70;99.90;;;;;;5014653;28;20539;-89
2022/11/18 02:45:08;;;;;;;21.53;10.63;;;3.70;99.90;;;;;;5014937;28;20186;-89
2022/11/18 02:47:36;;;;;;;16.17;10.30;;;3.70;99.90;;;;;;5012508;28;20203;-88
2022/11/18 02:50:07;;;;;;;19.40;10.97;;;3.60;99.90;;;;;;5005766;28;20186;-89
2022/11/18 02:52:36;;;;;;;16.37;10.17;;;3.60;99.90;;;;;;5009029;28;20299;-89
2022/11/18 02:55:06;;;;;;;18.33;10.67;;;3.60;99.90;;;;;;5012830;28;20180;-88
2022/11/18 02:57:33;;;;;;;17.80;11.13;;;3.60;99.90;;;;;;5014878;28;20203;-87
2022/11/18 02:59:59;;;;;;;18.20;11.13;;;3.50;99.90;;;;;;5014957;28;20737;-89
2022/11/18 03:03:01;;;;;;;20.07;11.10;;;3.60;99.90;;;;;;5014490;28;20287;-87
2022/11/18 03:06:04;;;;;;;20.50;11.20;;;3.50;99.90;;;;;;5011962;28;20187;-86
2022/11/18 03:08:46;;;;;;;19.40;11.23;;;3.50;99.90;;;;;;4982806;28;20578;-86
2022/11/18 03:11:58;;;;;;;16.70;11.13;;;3.60;99.90;;;;;;4995348;28;20169;-86
2022/11/18 03:14:38;;;;;;;17.90;10.63;;;3.60;99.90;;;;;;4985799;28;20659;-89
2022/11/18 03:17:12;;;;;;;18.53;10.33;;;3.60;99.90;;;;;;5014950;28;20202;-86
2022/11/18 03:19:58;;;;;;;19.47;11.93;;;3.60;99.90;;;;;;5015773;28;20605;-86
2022/11/18 03:22:37;;;;;;;20.00;12.07;;;3.60;99.90;;;;;;5013989;28;20659;-88
2022/11/18 03:25:16;;;;;;;20.37;12.40;;;3.60;99.90;;;;;;5014092;28;20179;-88
2022/11/18 03:28:02;;;;;;;21.57;12.77;;;3.60;99.90;;;;;;5015631;28;20670;-90
2022/11/18 03:30:32;;;;;;;22.27;12.73;;;3.60;99.90;;;;;;5014320;28;20222;-89
2022/11/18 03:33:10;;;;;;;22.47;12.50;;;3.70;99.90;;;;;;5014813;28;20674;-89
2022/11/18 03:35:42;;;;;;;21.83;12.90;;;3.60;99.90;;;;;;5014550;28;20175;-87
2022/11/18 03:38:16;;;;;;;20.87;12.87;;;3.60;99.90;;;;;;5015792;28;20210;-89
2022/11/18 03:40:49;;;;;;;19.00;12.40;;;3.50;99.90;;;;;;5014247;28;20178;-89
2022/11/18 03:43:22;;;;;;;24.47;13.10;;;3.50;99.90;;;;;;5015773;28;20187;-88
2022/11/18 03:45:51;;;;;;;23.83;13.63;;;3.50;99.90;;;;;;5013913;28;20210;-88
2022/11/18 03:48:26;;;;;;;20.70;13.10;;;3.50;99.90;;;;;;5013818;28;20199;-88
2022/11/18 03:51:07;;;;;;;20.80;13.47;;;3.40;99.90;;;;;;5014276;28;20189;-88
2022/11/18 03:53:38;;;;;;;22.37;13.43;;;3.40;99.90;;;;;;5013532;28;20258;-89
2022/11/18 03:56:20;;;;;;;19.50;12.63;;;3.40;99.90;;;;;;5013664;28;20167;-90
2022/11/18 03:59:10;;;;;;;24.43;13.87;;;3.40;99.90;;;;;;5013813;28;20264;-90
2022/11/18 04:01:41;;;;;;;24.10;14.10;;;3.50;99.90;;;;;;5013520;28;20277;-89
2022/11/18 04:04:09;;;;;;;23.07;14.10;;;3.40;99.90;;;;;;5014013;28;20163;-87
2022/11/18 04:07:11;;;;;;;26.63;14.93;;;3.40;99.90;;;;;;5014137;28;20173;-87
2022/11/18 04:09:46;;;;;;;23.83;13.97;;;3.40;99.90;;;;;;5014125;28;20170;-88
2022/11/18 04:12:16;;;;;;;29.73;15.80;;;3.40;99.90;;;;;;5014048;28;20173;-86
2022/11/18 04:14:46;;;;;;;22.10;14.10;;;3.40;99.90;;;;;;5013872;28;20163;-86
2022/11/18 04:17:17;;;;;;;24.80;14.33;;;3.40;99.90;;;;;;5013770;28;20202;-86
2022/11/18 04:19:43;;;;;;;24.47;14.00;;;3.40;99.90;;;;;;4997607;28;20218;-86
2022/11/18 04:22:10;;;;;;;26.87;15.23;;;3.30;99.90;;;;;;5013506;28;20698;-87
2022/11/18 04:24:36;;;;;;;24.70;14.50;;;3.30;99.90;;;;;;5013692;28;20164;-87
2022/11/18 04:27:03;;;;;;;25.37;15.37;;;3.30;99.90;;;;;;4993761;28;20752;-87
2022/11/18 04:29:31;;;;;;;25.00;15.17;;;3.30;99.90;;;;;;4993961;28;20172;-88
2022/11/18 04:31:58;;;;;;;25.03;14.30;;;3.30;99.90;;;;;;4993680;28;20175;-87
2022/11/18 04:34:24;;;;;;;26.80;14.97;;;3.30;99.90;;;;;;4996633;28;20223;-89
2022/11/18 04:36:50;;;;;;;25.17;14.77;;;3.30;99.90;;;;;;4993742;28;20242;-90
2022/11/18 04:39:17;;;;;;;24.83;15.07;;;3.30;99.90;;;;;;4993916;28;20172;-88
2022/11/18 04:41:56;;;;;;;25.30;14.87;;;3.30;99.90;;;;;;5010345;28;20260;-89
2022/11/18 04:44:32;;;;;;;24.63;13.73;;;3.30;99.90;;;;;;5007777;28;20262;-89
2022/11/18 04:47:02;;;;;;;21.50;13.37;;;3.20;99.90;;;;;;5014836;28;20195;-89
2022/11/18 04:49:29;;;;;;;29.10;15.27;;;3.20;99.90;;;;;;5014712;28;20206;-87
2022/11/18 04:51:56;;;;;;;22.80;13.90;;;3.10;99.90;;;;;;5015477;28;20163;-86
2022/11/18 04:54:24;;;;;;;23.27;13.40;;;3.20;99.90;;;;;;5015212;28;20172;-87
2022/11/18 04:56:50;;;;;;;23.13;13.23;;;3.10;99.90;;;;;;5014311;28;20207;-89
2022/11/18 04:59:21;;;;;;;23.53;13.73;;;3.20;99.90;;;;;;5014094;28;20270;-90
2022/11/18 05:01:47;;;;;;;26.10;13.27;;;3.20;99.90;;;;;;5014414;28;20175;-89
2022/11/18 05:04:15;;;;;;;25.20;13.50;;;3.20;99.90;;;;;;5015940;28;20218;-89
2022/11/18 05:06:42;;;;;;;26.20;13.43;;;3.10;99.90;;;;;;5014050;28;20179;-89
2022/11/18 05:09:09;;;;;;;21.03;13.90;;;3.10;99.90;;;;;;5014227;28;20160;-88
2022/11/18 05:14:19;;;;;;;19.63;12.17;;;3.10;99.90;;;;;;5014381;28;20198;-89
2022/11/18 05:16:45;;;;;;;20.87;13.30;;;3.10;99.90;;;;;;5012866;28;20183;-89
2022/11/18 05:19:11;;;;;;;22.70;12.73;;;3.10;99.90;;;;;;5012666;28;20237;-89
2022/11/18 05:21:37;;;;;;;19.63;12.07;;;3.00;99.90;;;;;;5012986;28;20207;-89
2022/11/18 05:24:04;;;;;;;21.70;13.13;;;3.00;99.90;;;;;;5012378;28;20245;-89
2022/11/18 05:26:30;;;;;;;21.57;12.80;;;3.00;99.90;;;;;;5011646;28;20672;-88
2022/11/18 05:28:56;;;;;;;25.33;14.17;;;3.00;99.90;;;;;;5011794;28;20549;-88
2022/11/18 05:31:22;;;;;;;24.20;13.37;;;3.00;99.90;;;;;;5011867;28;20175;-89
2022/11/18 05:33:50;;;;;;;23.03;13.00;;;3.00;99.90;;;;;;5011807;28;20205;-89
2022/11/18 05:36:18;;;;;;;29.37;13.50;;;3.00;99.90;;;;;;5011502;28;20266;-88
2022/11/18 05:38:45;;;;;;;20.50;12.63;;;3.00;99.90;;;;;;5011549;28;20345;-88
2022/11/18 05:43:09;;;;;;;23.00;12.53;;;2.90;99.90;;;;;;5011522;28;20550;-89
2022/11/18 05:43:58;;;;;;;25.70;14.53;;;3.00;99.90;;;;;;5012422;28;20246;-89
2022/11/18 05:46:24;;;;;;;24.57;13.47;;;2.90;99.90;;;;;;5012561;28;20203;-89
2022/11/18 05:48:50;;;;;;;20.80;12.87;;;2.90;99.90;;;;;;5016076;28;20199;-88
2022/11/18 05:51:16;;;;;;;23.53;13.87;;;2.90;99.90;;;;;;5014679;28;20669;-89
2022/11/18 05:53:42;;;;;;;23.40;13.40;;;2.90;99.90;;;;;;5014951;28;20171;-89
2022/11/18 05:56:23;;;;;;;22.03;13.53;;;2.80;99.90;;;;;;5015100;28;20266;-90
2022/11/18 05:58:51;;;;;;;20.67;13.37;;;2.90;99.90;;;;;;5014269;28;20221;-90
2022/11/18 06:01:43;;;;;;;22.47;13.90;;;2.90;99.90;;;;;;5014602;28;20189;-91
2022/11/18 06:04:47;;;;;;;25.23;14.43;;;2.90;99.90;;;;;;5011451;28;20697;-87
2022/11/18 06:07:29;;;;;;;26.30;14.60;;;2.90;99.90;;;;;;4995277;28;20757;-89
2022/11/18 06:09:59;;;;;;;29.00;16.00;;;2.80;99.90;;;;;;4995433;28;20180;-90
2022/11/18 06:12:42;;;;;;;25.47;15.10;;;2.80;99.90;;;;;;4996761;28;20662;-89
2022/11/18 06:15:20;;;;;;;29.63;15.30;;;2.90;99.90;;;;;;4994915;28;20639;-89
2022/11/18 06:17:58;;;;;;;31.70;14.17;;;2.80;99.90;;;;;;4995476;28;20199;-89
2022/11/18 06:20:41;;;;;;;25.00;13.23;;;2.80;99.90;;;;;;4994967;28;20179;-90
2022/11/18 06:23:14;;;;;;;19.87;12.40;;;2.70;99.90;;;;;;4994415;28;20196;-88
2022/11/18 06:25:41;;;;;;;20.63;13.13;;;2.70;99.90;;;;;;4953415;28;1264635;-89
2022/11/18 06:28:14;;;;;;;20.97;11.73;;;2.70;99.90;;;;;;5006056;28;20208;-89
2022/11/18 06:30:41;;;;;;;25.83;13.17;;;2.70;99.90;;;;;;4996084;28;20176;-90
2022/11/18 06:33:08;;;;;;;21.70;13.67;;;2.70;99.90;;;;;;4996160;28;20212;-90
2022/11/18 06:35:34;;;;;;;23.97;14.07;;;2.70;99.90;;;;;;4996274;28;20183;-90
2022/11/18 06:38:00;;;;;;;21.93;13.53;;;2.70;99.90;;;;;;4996134;28;20597;-90
2022/11/18 06:40:26;;;;;;;21.83;13.10;;;2.70;99.90;;;;;;4995974;28;20184;-89
2022/11/18 06:46:54;;;;;;;25.97;14.10;;;2.60;99.90;;;;;;5004116;28;20190;-89
2022/11/18 06:48:40;;;;;;;23.03;14.50;;;2.70;99.90;;;;;;5003766;28;20269;-88
2022/11/18 06:54:10;;;;;;;32.00;16.17;;;2.70;99.90;;;;;;4994716;28;20301;-89
2022/11/18 06:56:50;;;;;;;27.47;16.43;;;2.70;99.90;;;;;;5010269;28;20318;-88
2022/11/18 06:59:28;;;;;;;31.73;16.83;;;2.70;99.90;;;;;;5014805;28;20175;-90
2022/11/18 07:01:55;;;;;;;27.40;16.00;;;2.60;99.90;;;;;;5014535;28;20171;-90
2022/11/18 07:04:21;;;;;;;29.20;17.07;;;2.60;99.90;;;;;;5014819;28;20258;-89
2022/11/18 07:06:48;;;;;;;30.43;17.10;;;2.60;99.90;;;;;;5014672;28;20353;-90
2022/11/18 07:09:14;;;;;;;27.97;16.97;;;2.50;99.90;;;;;;5015124;28;20182;-90
2022/11/18 07:11:40;;;;;;;28.50;17.57;;;2.50;99.90;;;;;;5015340;28;20194;-90
2022/11/18 07:14:08;;;;;;;27.13;15.67;;;2.60;99.90;;;;;;5016060;28;20225;-89
2022/11/18 07:16:37;;;;;;;24.67;15.00;;;2.50;99.90;;;;;;5015829;28;20178;-89
2022/11/18 07:19:13;;;;;;;25.03;14.70;;;2.50;99.90;;;;;;5015945;28;20627;-89
2022/11/18 07:21:40;;;;;;;27.10;15.67;;;2.40;99.90;;;;;;5015627;28;20198;-89
2022/11/18 07:24:08;;;;;;;25.43;15.30;;;2.40;99.90;;;;;;5015460;28;20191;-88
2022/11/18 07:26:35;;;;;;;25.33;16.07;;;2.30;99.90;;;;;;5014962;28;20686;-90
2022/11/18 07:29:02;;;;;;;26.57;15.60;;;2.30;99.90;;;;;;4999299;28;20187;-89
2022/11/18 07:31:29;;;;;;;25.87;16.23;;;2.20;99.90;;;;;;4995197;28;20182;-89
2022/11/18 07:33:55;;;;;;;33.47;16.67;;;2.20;99.90;;;;;;4994849;28;20187;-87
2022/11/18 07:36:28;;;;;;;28.80;15.13;;;2.30;99.90;;;;;;4994498;28;20238;-86
2022/11/18 07:38:54;;;;;;;24.80;15.97;;;2.30;99.90;;;;;;4994826;28;20191;-88
2022/11/18 07:41:22;;;;;;;30.97;16.93;;;2.20;99.90;;;;;;4994523;28;20238;-86
2022/11/18 07:43:49;;;;;;;24.63;14.67;;;2.30;99.90;;;;;;4994692;28;20239;-86
2022/11/18 07:46:20;;;;;;;24.33;15.53;;;2.30;99.90;;;;;;4991848;28;20180;-87
2022/11/18 07:48:48;;;;;;;22.97;12.90;;;2.20;99.90;;;;;;4989019;28;20195;-86
2022/11/18 07:51:16;;;;;;;22.73;14.90;;;2.20;99.90;;;;;;4993198;28;20183;-88
2022/11/18 07:53:43;;;;;;;23.40;14.20;;;2.20;99.90;;;;;;4994021;28;20187;-89
2022/11/18 07:56:10;;;;;;;24.43;14.40;;;2.10;99.90;;;;;;4994573;28;20195;-88
2022/11/18 07:58:37;;;;;;;19.07;12.57;;;2.10;99.90;;;;;;5007075;28;20207;-89
2022/11/18 08:01:11;;;;;;;22.23;13.13;;;2.00;99.90;;;;;;5013667;28;20202;-88
2022/11/18 08:03:38;;;;;;;20.10;13.17;;;2.00;99.90;;;;;;5013817;28;20684;-90
2022/11/18 08:06:08;;;;;;;16.97;11.63;;;2.00;99.90;;;;;;5013827;28;20172;-89
2022/11/18 08:08:34;;;;;;;22.70;13.27;;;2.00;99.90;;;;;;5013140;28;20211;-89
2022/11/18 08:11:02;;;;;;;21.33;12.87;;;2.00;99.90;;;;;;5013361;28;20167;-88
2022/11/18 08:13:28;;;;;;;19.30;12.13;;;2.00;99.90;;;;;;5013963;28;20262;-90
2022/11/18 08:15:55;;;;;;;18.40;12.57;;;1.90;99.90;;;;;;5013585;28;20507;-89
2022/11/18 08:18:23;;;;;;;21.60;14.00;;;1.90;99.90;;;;;;5014790;28;20210;-90
2022/11/18 08:20:50;;;;;;;22.50;14.03;;;1.90;99.90;;;;;;5013720;28;20202;-88
2022/11/18 08:23:16;;;;;;;21.20;13.53;;;1.80;99.90;;;;;;5013276;28;20213;-88
2022/11/18 08:25:43;;;;;;;23.13;13.60;;;1.80;99.90;;;;;;5013117;28;20254;-90
2022/11/18 08:28:13;;;;;;;24.57;14.67;;;1.90;99.90;;;;;;5003520;28;20238;-89
2022/11/18 08:30:39;;;;;;;23.30;15.53;;;1.80;99.90;;;;;;4993572;28;20180;-89
2022/11/18 08:33:05;;;;;;;23.23;15.10;;;1.80;99.90;;;;;;4993742;28;20238;-89
2022/11/18 08:35:32;;;;;;;25.63;16.37;;;1.80;99.90;;;;;;4993645;28;20703;-89
2022/11/18 08:37:58;;;;;;;26.00;15.83;;;1.80;99.90;;;;;;4993715;28;20238;-89
2022/11/18 08:40:25;;;;;;;27.23;15.73;;;1.80;99.90;;;;;;4994061;28;20210;-90
2022/11/18 08:42:50;;;;;;;26.53;16.30;;;1.90;99.90;;;;;;4994527;28;20195;-90
2022/11/18 08:45:17;;;;;;;23.73;14.37;;;1.80;99.90;;;;;;4993777;28;20627;-89
2022/11/18 08:47:42;;;;;;;25.40;16.20;;;1.80;99.90;;;;;;4993527;28;20231;-89
2022/11/18 08:50:10;;;;;;;24.87;16.10;;;1.80;99.90;;;;;;4993611;28;20214;-89
2022/11/18 08:52:36;;;;;;;28.30;16.40;;;1.80;99.90;;;;;;4993362;28;20187;-89
2022/11/18 08:55:03;;;;;;;25.43;15.57;;;1.70;99.90;;;;;;4993268;28;20210;-90
2022/11/18 08:57:29;;;;;;;24.80;15.13;;;1.70;99.90;;;;;;4994177;28;20209;-88
2022/11/18 08:59:55;;;;;;;22.70;14.33;;;1.60;99.90;;;;;;4993416;28;20183;-88
2022/11/18 09:02:22;;;;;;;22.83;15.33;;;1.60;99.90;;;;;;4993050;28;20205;-88
2022/11/18 09:04:52;;;;;;;25.50;15.83;;;1.60;99.90;;;;;;4993213;28;20173;-89
2022/11/18 09:07:19;;;;;;;23.17;14.57;;;1.60;99.90;;;;;;4993107;28;20277;-89
2022/11/18 09:09:44;;;;;;;25.00;15.80;;;1.60;99.90;;;;;;4993239;28;20263;-89
2022/11/18 09:12:16;;;;;;;25.80;15.93;;;1.50;99.90;;;;;;4993557;28;20179;-90
2022/11/18 09:14:43;;;;;;;22.77;14.10;;;1.50;99.90;;;;;;4993437;28;20180;-89
2022/11/18 09:17:09;;;;;;;23.63;14.97;;;1.50;99.90;;;;;;4993114;28;20289;-90
2022/11/18 09:19:35;;;;;;;25.67;15.73;;;1.50;99.90;;;;;;4993572;28;20187;-89
2022/11/18 09:22:01;;;;;;;25.20;14.63;;;1.50;99.90;;;;;;4994208;28;20182;-89
2022/11/18 09:24:27;;;;;;;22.87;14.37;;;1.60;99.90;;;;;;4993819;28;20628;-90
2022/11/18 09:26:52;;;;;;;23.13;13.77;;;1.60;99.90;;;;;;4993027;28;20309;-88
2022/11/18 09:29:21;;;;;;;27.10;13.23;;;1.60;99.90;;;;;;4992980;28;20183;-89
2022/11/18 09:31:47;;;;;;;22.07;13.47;;;1.50;99.90;;;;;;4993466;28;20219;-90
2022/11/18 09:34:13;;;;;;;21.57;13.50;;;1.60;99.90;;;;;;4993791;28;20195;-90
2022/11/18 09:36:38;;;;;;;24.13;14.23;;;1.60;99.90;;;;;;4995614;28;20619;-90
2022/11/18 09:39:05;;;;;;;22.17;13.23;;;1.50;99.90;;;;;;4993975;28;20168;-90
2022/11/18 09:41:58;;;;;;;24.73;14.77;;;1.50;99.90;;;;;;4995965;28;20172;-89
2022/11/18 09:44:39;;;;;;;23.87;14.53;;;1.50;99.90;;;;;;5004118;28;20183;-89
2022/11/18 09:47:27;;;;;;;22.57;13.73;;;1.50;99.90;;;;;;5004046;28;20202;-89
2022/11/18 09:49:57;;;;;;;23.70;14.47;;;1.50;99.90;;;;;;4994151;28;20176;-88
2022/11/18 09:52:51;;;;;;;22.97;15.03;;;1.40;99.90;;;;;;4992957;28;20194;-89
2022/11/18 09:55:18;;;;;;;25.03;15.07;;;1.50;99.90;;;;;;4982654;28;20187;-90
2022/11/18 09:57:50;;;;;;;26.97;15.50;;;1.40;99.90;;;;;;4992883;28;20580;-89
2022/11/18 10:00:18;;;;;;;28.87;14.57;;;1.40;99.90;;;;;;4993016;28;20680;-89
2022/11/18 10:02:55;;;;;;;23.83;15.73;;;1.40;99.90;;;;;;4992750;28;20192;-88
2022/11/18 10:05:25;;;;;;;25.57;15.30;;;1.50;99.90;;;;;;4992947;28;20168;-89
2022/11/18 10:08:14;;;;;;;25.13;15.93;;;1.40;99.90;;;;;;4993637;28;20269;-89
2022/11/18 10:10:49;;;;;;;24.03;14.17;;;1.40;99.90;;;;;;4992779;28;20165;-90
2022/11/18 10:13:44;;;;;;;23.13;14.90;;;1.40;99.90;;;;;;4992872;28;20194;-89
2022/11/18 10:16:41;;;;;;;24.97;14.37;;;1.50;99.90;;;;;;4971371;28;20236;-89
2022/11/18 10:19:26;;;;;;;24.50;15.23;;;1.50;99.90;;;;;;4992816;28;20655;-90
2022/11/18 10:21:57;;;;;;;29.20;17.47;;;1.40;99.90;;;;;;4992395;28;20279;-89
2022/11/18 10:24:26;;;;;;;29.63;17.03;;;1.40;99.90;;;;;;4992694;28;20247;-89
2022/11/18 10:26:57;;;;;;;25.73;16.10;;;1.40;99.90;;;;;;4992428;28;20224;-89
2022/11/18 10:29:24;;;;;;;26.80;16.63;;;1.30;99.90;;;;;;4993094;28;20172;-89
2022/11/18 10:32:06;;;;;;;25.83;14.80;;;1.20;99.90;;;;;;4992636;28;20209;-88
2022/11/18 10:34:34;;;;;;;25.87;15.77;;;1.30;99.90;;;;;;4996049;28;20165;-89
2022/11/18 10:37:06;;;;;;;27.03;16.60;;;1.20;99.90;;;;;;4996763;28;20223;-89
2022/11/18 10:39:32;;;;;;;24.10;15.30;;;1.20;99.90;;;;;;4992619;28;20181;-89
2022/11/18 10:42:02;;;;;;;26.83;15.73;;;1.20;99.90;;;;;;4976713;28;20169;-89
2022/11/18 10:44:37;;;;;;;24.93;15.97;;;1.20;99.90;;;;;;4976792;28;20220;-89
2022/11/18 10:47:25;;;;;;;26.10;14.97;;;1.10;99.90;;;;;;4976542;28;20690;-89
2022/11/18 10:49:52;;;;;;;25.77;14.47;;;1.20;99.90;;;;;;4976389;28;20164;-90
2022/11/18 10:52:22;;;;;;;21.30;13.77;;;1.20;99.90;;;;;;4977867;28;20180;-89
2022/11/18 10:55:23;;;;;;;23.93;15.07;;;1.20;99.90;;;;;;4976760;28;20173;-90
2022/11/18 10:57:57;;;;;;;46.13;25.57;;;1.20;99.90;;;;;;4976441;28;20687;-89
2022/11/18 11:00:39;;;;;;;24.83;15.00;;;1.20;99.90;;;;;;4976297;28;20189;-89
2022/11/18 11:03:31;;;;;;;27.17;17.00;;;1.20;99.90;;;;;;4976769;28;20204;-89
2022/11/18 11:06:36;;;;;;;29.33;15.53;;;1.20;99.90;;;;;;4976903;28;20165;-89
2022/11/18 11:09:24;;;;;;;23.70;14.83;;;1.20;99.90;;;;;;4921454;29;20317;-89
2022/11/18 11:11:57;;;;;;;23.03;14.37;;;1.30;99.90;;;;;;4977106;28;20231;-90
2022/11/18 11:14:46;;;;;;;22.03;13.53;;;1.30;99.90;;;;;;4976728;28;20257;-89
2022/11/18 11:17:26;;;;;;;23.10;14.40;;;1.30;99.90;;;;;;4977689;28;20199;-90
2022/11/18 11:20:30;;;;;;;18.57;11.30;;;1.30;99.90;;;;;;4976867;28;20169;-89
2022/11/18 11:22:56;;;;;;;26.03;14.17;;;1.30;99.90;;;;;;4964072;28;20235;-89
2022/11/18 11:26:16;;;;;;;22.03;13.80;;;1.20;99.90;;;;;;4976317;28;20716;-89
2022/11/18 11:28:48;;;;;;;21.73;14.03;;;1.20;99.90;;;;;;4921247;29;20297;-89
2022/11/18 11:31:34;;;;;;;24.37;14.30;;;1.10;99.90;;;;;;4974541;28;20191;-89
2022/11/18 11:34:38;;;;;;;23.30;14.90;;;1.20;99.90;;;;;;4976394;28;20204;-89
2022/11/18 11:37:32;;;;;;;22.87;14.23;;;1.10;99.90;;;;;;4976208;28;20200;-90
2022/11/18 11:40:28;;;;;;;20.47;12.97;;;1.20;99.90;;;;;;4976509;28;20549;-90
2022/11/18 11:43:15;;;;;;;25.10;14.43;;;1.20;99.90;;;;;;4976224;28;20291;-89
2022/11/18 11:46:08;;;;;;;20.43;13.63;;;1.20;99.90;;;;;;4975092;28;20172;-90
2022/11/18 11:49:07;;;;;;;22.70;14.20;;;1.10;99.90;;;;;;4975833;28;20251;-89
2022/11/18 11:51:52;;;;;;;22.50;13.23;;;1.20;99.90;;;;;;4982403;28;20272;-90
2022/11/18 11:54:41;;;;;;;20.07;12.93;;;1.20;99.90;;;;;;4976890;28;20164;-89
2022/11/18 11:57:15;;;;;;;24.53;13.43;;;1.20;99.90;;;;;;4976165;28;20208;-90
2022/11/18 12:00:00;;;;;;;21.20;13.67;;;1.20;99.90;;;;;;4975742;28;20172;-89
2022/11/18 12:02:41;;;;;;;19.50;12.77;;;1.20;99.90;;;;;;4975638;28;20216;-89
2022/11/18 12:05:29;;;;;;;19.00;12.83;;;1.10;99.90;;;;;;4975732;28;20261;-90
2022/11/18 12:08:02;;;;;;;20.47;13.07;;;1.10;99.90;;;;;;4975760;28;20197;-89
2022/11/18 12:10:37;;;;;;;18.03;11.70;;;1.10;99.90;;;;;;4976680;28;20165;-90
2022/11/18 12:13:25;;;;;;;20.07;13.57;;;1.00;99.90;;;;;;4976872;28;20219;-88
2022/11/18 12:15:54;;;;;;;20.97;14.00;;;1.00;99.90;;;;;;4975681;28;20176;-89
2022/11/18 12:18:52;;;;;;;20.67;14.13;;;1.00;99.90;;;;;;4975146;28;20228;-90
2022/11/18 12:21:44;;;;;;;22.93;14.17;;;1.00;99.90;;;;;;4967435;28;20188;-89
2022/11/18 12:24:19;;;;;;;24.77;14.80;;;1.00;99.90;;;;;;4968863;28;20770;-89
2022/11/18 12:26:47;;;;;;;24.13;15.40;;;1.00;99.90;;;;;;4974936;28;20236;-89
2022/11/18 12:29:19;;;;;;;23.63;15.30;;;1.00;99.90;;;;;;5007716;28;20274;-89
2022/11/18 12:31:57;;;;;;;23.07;15.50;;;1.00;99.90;;;;;;5014027;28;20167;-89
2022/11/18 12:34:42;;;;;;;24.30;15.23;;;1.10;99.90;;;;;;5013908;28;20597;-88
2022/11/18 12:37:34;;;;;;;24.93;15.10;;;1.10;99.90;;;;;;5014767;28;20203;-89
2022/11/18 12:40:00;;;;;;;24.83;15.70;;;1.10;99.90;;;;;;5013647;28;20647;-88
2022/11/18 12:45:39;;;;;;;24.07;15.40;;;1.00;99.90;;;;;;5014626;28;20233;-89
2022/11/18 12:48:31;;;;;;;24.10;16.03;;;1.00;99.90;;;;;;5014443;28;20684;-89
2022/11/18 12:50:58;;;;;;;25.33;16.03;;;1.00;99.90;;;;;;5013622;28;20163;-90
2022/11/18 12:53:42;;;;;;;28.30;16.80;;;1.00;99.90;;;;;;5013123;28;20171;-89
2022/11/18 12:56:17;;;;;;;27.20;17.13;;;1.00;99.90;;;;;;5012568;28;20183;-89
2022/11/18 12:58:48;;;;;;;24.63;15.80;;;1.00;99.90;;;;;;5000525;28;20222;-90
2022/11/18 13:01:17;;;;;;;26.17;16.10;;;1.10;99.90;;;;;;4993387;28;20540;-89
2022/11/18 13:03:43;;;;;;;28.57;16.97;;;1.10;99.90;;;;;;4993778;28;20214;-89
2022/11/18 13:06:12;;;;;;;29.80;18.13;;;1.10;99.90;;;;;;4993295;28;20795;-89
2022/11/18 13:08:40;;;;;;;31.00;19.13;;;1.00;99.90;;;;;;4993346;28;20200;-89
2022/11/18 13:19:33;;;;;;;26.33;16.73;;;1.10;99.90;;;;;;4994208;28;20218;-89
2022/11/18 13:24:50;;;;;;;27.63;17.83;;;1.10;99.90;;;;;;4994771;28;20169;-90
2022/11/18 13:27:31;;;;;;;24.27;16.13;;;1.10;99.90;;;;;;4993637;28;20300;-88
2022/11/18 13:30:05;;;;;;;30.83;18.03;;;1.10;99.90;;;;;;4993961;28;20171;-90
2022/11/18 13:32:31;;;;;;;26.80;16.90;;;1.10;99.90;;;;;;4994074;28;20184;-89
2022/11/18 13:35:19;;;;;;;25.77;16.40;;;1.10;99.90;;;;;;4994386;28;20176;-89